Sea Thames — V2BV1 — position and weather

sailwx.info

Track history (hours):
 
Tides and Currents Weather Stations Pressure Air Temp Water Temp Dewpoint Dewpoint Depression Visibility Wind Speed Wind Dir Waves Ship Positions

Sea Thames

Last reported at 2015-Feb-21 11:04 UTC. Time now 2015-Feb-28 23:04 UTC.
Position N 50°57' E 001°14'.

Length 87 m; draft 3.6 m.

Type: Cargo ship. MMSI: 304933000.

Date/timePositionNaut miles runAvg speedWind from/ knotsBaromVisibWave heightAir tempDewpointWater temp
2015-Feb-21 11:04N 50°57' E 001°14'4 7.8
2015-Feb-21 10:31N 50°60' E 001°19'1010.2
2015-Feb-21 09:33N 51°06' E 001°31'1111.0
2015-Feb-21 08:34N 51°13' E 001°44'10 9.6
2015-Feb-21 07:33N 51°22' E 001°51'81 7.7
2015-Feb-20 21:04N 52°03' E 003°43'5 9.6
2015-Feb-20 20:33N 52°03' E 003°51'9 9.6
2015-Feb-20 19:34N 51°59' E 004°05'1110.3
2015-Feb-20 18:32N 51°54' E 004°19'0 0.0
2015-Feb-20 17:33N 51°54' E 004°19'0 0.0
2015-Feb-20 16:33N 51°54' E 004°19'0 0.0
2015-Feb-20 15:33N 51°54' E 004°19'0 0.0
2015-Feb-20 14:33N 51°54' E 004°19'0 0.0
2015-Feb-20 13:34N 51°54' E 004°19'0 0.0
2015-Feb-20 12:33N 51°54' E 004°19'0 0.0
2015-Feb-20 11:33N 51°54' E 004°19'0 0.0
2015-Feb-20 10:33N 51°54' E 004°19'0 0.0
2015-Feb-20 09:33N 51°54' E 004°19'0 0.0
2015-Feb-20 08:33N 51°54' E 004°19'0 0.0
2015-Feb-20 07:33N 51°54' E 004°19'0 0.0
2015-Feb-20 06:34N 51°54' E 004°19'0 0.0
2015-Feb-20 05:34N 51°54' E 004°19'0 0.0
2015-Feb-20 04:33N 51°54' E 004°19'0 0.0
2015-Feb-20 03:33N 51°54' E 004°19'0 0.0
2015-Feb-20 02:33N 51°54' E 004°19'0 0.0
2015-Feb-20 01:33N 51°54' E 004°19'0 0.0
2015-Feb-20 00:33N 51°54' E 004°19'0 0.0
2015-Feb-19 23:33N 51°54' E 004°19'0 0.0
2015-Feb-19 22:34N 51°54' E 004°19'0 0.0
2015-Feb-19 21:33N 51°54' E 004°19'0 0.0
2015-Feb-19 20:34N 51°54' E 004°19'0 0.0
2015-Feb-19 19:34N 51°54' E 004°19'0 0.0
2015-Feb-19 18:34N 51°54' E 004°19'0 0.0
2015-Feb-19 17:33N 51°54' E 004°19'0 0.0
2015-Feb-19 16:33N 51°54' E 004°19'0 0.0
2015-Feb-19 15:34N 51°54' E 004°19'0 0.0
2015-Feb-19 14:33N 51°54' E 004°19'0 0.0
2015-Feb-19 13:34N 51°54' E 004°19'0 0.0
2015-Feb-19 12:33N 51°54' E 004°19'0 0.0
2015-Feb-19 11:34N 51°54' E 004°19'0 0.0
2015-Feb-19 10:33N 51°54' E 004°19'0 0.0
2015-Feb-19 09:33N 51°54' E 004°19'0 0.0
2015-Feb-19 08:33N 51°54' E 004°19'0 0.0
2015-Feb-19 07:33N 51°54' E 004°19'0 0.0
2015-Feb-19 06:33N 51°54' E 004°19'0 0.0
2015-Feb-19 05:34N 51°54' E 004°19'0 0.0
2015-Feb-19 04:34N 51°54' E 004°19'0 0.0
2015-Feb-19 03:34N 51°54' E 004°19'0 0.0
2015-Feb-19 02:33N 51°54' E 004°19'0 0.0
2015-Feb-19 01:33N 51°54' E 004°19'0 0.0
2015-Feb-19 00:33N 51°54' E 004°19'0 0.0
2015-Feb-18 23:33N 51°54' E 004°19'0 0.0
2015-Feb-18 22:33N 51°54' E 004°19'0 0.0
2015-Feb-18 21:34N 51°54' E 004°19'0 0.0
2015-Feb-18 20:32N 51°54' E 004°19'0 0.0
2015-Feb-18 19:34N 51°54' E 004°19'0 0.0
2015-Feb-18 18:34N 51°54' E 004°19'0 0.0
2015-Feb-18 17:33N 51°54' E 004°19'0 0.0
2015-Feb-18 16:33N 51°54' E 004°19'0 0.0
2015-Feb-18 15:33N 51°54' E 004°19'0 0.0
2015-Feb-18 14:33N 51°54' E 004°19'0 0.0
2015-Feb-18 13:33N 51°54' E 004°19'0 0.0
2015-Feb-18 12:33N 51°54' E 004°19'0 0.0
2015-Feb-18 11:33N 51°54' E 004°19'0 0.0
2015-Feb-18 10:33N 51°54' E 004°19'0 0.0
2015-Feb-18 09:33N 51°54' E 004°19'0 0.0
2015-Feb-18 08:33N 51°54' E 004°19'0 0.0
2015-Feb-18 07:34N 51°54' E 004°19'0 0.0
2015-Feb-18 06:34N 51°54' E 004°19'0 0.0
2015-Feb-18 05:34N 51°54' E 004°19'0 0.0
2015-Feb-18 04:34N 51°54' E 004°19'0 0.0
2015-Feb-18 03:34N 51°54' E 004°19'0 0.0
2015-Feb-18 02:33N 51°54' E 004°19'0 0.0
2015-Feb-18 01:33N 51°54' E 004°19'0 0.0
2015-Feb-18 00:33N 51°54' E 004°19'0 0.0
2015-Feb-17 23:33N 51°54' E 004°19'0 0.1
2015-Feb-17 22:34N 51°54' E 004°19'0 0.0
2015-Feb-17 21:30N 51°54' E 004°19'0 0.0
2015-Feb-17 20:32N 51°54' E 004°19'0 0.2
2015-Feb-17 19:33N 51°54' E 004°19'12 6.1
2015-Feb-17 17:33N 51°52' E 004°39'8 8.1
2015-Feb-17 16:31N 51°49' E 004°52'9 9.7
2015-Feb-17 15:33N 51°49' E 005°07'10 9.6
2015-Feb-17 14:33N 51°49' E 005°23'11 0.2
2015-Feb-15 19:17N 51°54' E 005°38'4 5.9
2015-Feb-15 18:33N 51°53' E 005°31'5 5.4
2015-Feb-15 17:33N 51°50' E 005°24'5 4.5
2015-Feb-15 16:33N 51°49' E 005°17'6 5.8
2015-Feb-15 15:33N 51°49' E 005°07'6 6.2
2015-Feb-15 14:33N 51°50' E 004°57'8 7.3
2015-Feb-15 13:30N 51°49' E 004°45'8 7.6
2015-Feb-15 12:31N 51°54' E 004°35'4 4.4
2015-Feb-15 11:31N 51°54' E 004°28'0 0.0
2015-Feb-15 10:33N 51°54' E 004°28'6 6.3
2015-Feb-15 09:33N 51°54' E 004°18'8 8.4
2015-Feb-15 08:33N 51°59' E 004°07'7 6.8
2015-Feb-15 07:33N 51°60' E 003°56'8 7.1
2015-Feb-15 06:29N 51°58' E 003°44'8 6.5
2015-Feb-15 05:13N 51°56' E 003°31'5 6.5
2015-Feb-15 04:29N 51°55' E 003°24'45 6.4
2015-Feb-14 21:28N 51°32' E 002°21'8 8.2
2015-Feb-14 20:26N 51°26' E 002°12'9 8.2
2015-Feb-14 19:17N 51°17' E 002°06'6 7.9
2015-Feb-14 18:32N 51°13' E 002°00'8 8.3
2015-Feb-14 17:33N 51°08' E 001°50'7 6.9
2015-Feb-14 16:33N 51°03' E 001°42'7 6.6
2015-Feb-14 15:32N 50°58' E 001°35'  
Track history (hours):
 
Tides and Currents Weather Stations Pressure Air Temp Water Temp Dewpoint Dewpoint Depression Visibility Wind Speed Wind Dir Waves Ship Positions

Sea Thames

Last reported at 2015-Feb-21 11:04 UTC. Time now 2015-Feb-28 23:04 UTC.
Position N 50°57' E 001°14'.

Length 87 m; draft 3.6 m.

Type: Cargo ship. MMSI: 304933000.

Date/timePositionNaut miles runAvg speedWind from/ knotsBaromVisibWave heightAir tempDewpointWater temp
2015-Feb-21 11:04N 50°57' E 001°14'4 7.8
2015-Feb-21 10:31N 50°60' E 001°19'1010.2
2015-Feb-21 09:33N 51°06' E 001°31'1111.0
2015-Feb-21 08:34N 51°13' E 001°44'10 9.6
2015-Feb-21 07:33N 51°22' E 001°51'81 7.7
2015-Feb-20 21:04N 52°03' E 003°43'5 9.6
2015-Feb-20 20:33N 52°03' E 003°51'9 9.6
2015-Feb-20 19:34N 51°59' E 004°05'1110.3
2015-Feb-20 18:32N 51°54' E 004°19'0 0.0
2015-Feb-20 17:33N 51°54' E 004°19'0 0.0
2015-Feb-20 16:33N 51°54' E 004°19'0 0.0
2015-Feb-20 15:33N 51°54' E 004°19'0 0.0
2015-Feb-20 14:33N 51°54' E 004°19'0 0.0
2015-Feb-20 13:34N 51°54' E 004°19'0 0.0
2015-Feb-20 12:33N 51°54' E 004°19'0 0.0
2015-Feb-20 11:33N 51°54' E 004°19'0 0.0
2015-Feb-20 10:33N 51°54' E 004°19'0 0.0
2015-Feb-20 09:33N 51°54' E 004°19'0 0.0
2015-Feb-20 08:33N 51°54' E 004°19'0 0.0
2015-Feb-20 07:33N 51°54' E 004°19'0 0.0
2015-Feb-20 06:34N 51°54' E 004°19'0 0.0
2015-Feb-20 05:34N 51°54' E 004°19'0 0.0
2015-Feb-20 04:33N 51°54' E 004°19'0 0.0
2015-Feb-20 03:33N 51°54' E 004°19'0 0.0
2015-Feb-20 02:33N 51°54' E 004°19'0 0.0
2015-Feb-20 01:33N 51°54' E 004°19'0 0.0
2015-Feb-20 00:33N 51°54' E 004°19'0 0.0
2015-Feb-19 23:33N 51°54' E 004°19'0 0.0
2015-Feb-19 22:34N 51°54' E 004°19'0 0.0
2015-Feb-19 21:33N 51°54' E 004°19'0 0.0
2015-Feb-19 20:34N 51°54' E 004°19'0 0.0
2015-Feb-19 19:34N 51°54' E 004°19'0 0.0
2015-Feb-19 18:34N 51°54' E 004°19'0 0.0
2015-Feb-19 17:33N 51°54' E 004°19'0 0.0
2015-Feb-19 16:33N 51°54' E 004°19'0 0.0
2015-Feb-19 15:34N 51°54' E 004°19'0 0.0
2015-Feb-19 14:33N 51°54' E 004°19'0 0.0
2015-Feb-19 13:34N 51°54' E 004°19'0 0.0
2015-Feb-19 12:33N 51°54' E 004°19'0 0.0
2015-Feb-19 11:34N 51°54' E 004°19'0 0.0
2015-Feb-19 10:33N 51°54' E 004°19'0 0.0
2015-Feb-19 09:33N 51°54' E 004°19'0 0.0
2015-Feb-19 08:33N 51°54' E 004°19'0 0.0
2015-Feb-19 07:33N 51°54' E 004°19'0 0.0
2015-Feb-19 06:33N 51°54' E 004°19'0 0.0
2015-Feb-19 05:34N 51°54' E 004°19'0 0.0
2015-Feb-19 04:34N 51°54' E 004°19'0 0.0
2015-Feb-19 03:34N 51°54' E 004°19'0 0.0
2015-Feb-19 02:33N 51°54' E 004°19'0 0.0
2015-Feb-19 01:33N 51°54' E 004°19'0 0.0
2015-Feb-19 00:33N 51°54' E 004°19'0 0.0
2015-Feb-18 23:33N 51°54' E 004°19'0 0.0
2015-Feb-18 22:33N 51°54' E 004°19'0 0.0
2015-Feb-18 21:34N 51°54' E 004°19'0 0.0
2015-Feb-18 20:32N 51°54' E 004°19'0 0.0
2015-Feb-18 19:34N 51°54' E 004°19'0 0.0
2015-Feb-18 18:34N 51°54' E 004°19'0 0.0
2015-Feb-18 17:33N 51°54' E 004°19'0 0.0
2015-Feb-18 16:33N 51°54' E 004°19'0 0.0
2015-Feb-18 15:33N 51°54' E 004°19'0 0.0
2015-Feb-18 14:33N 51°54' E 004°19'0 0.0
2015-Feb-18 13:33N 51°54' E 004°19'0 0.0
2015-Feb-18 12:33N 51°54' E 004°19'0 0.0
2015-Feb-18 11:33N 51°54' E 004°19'0 0.0
2015-Feb-18 10:33N 51°54' E 004°19'0 0.0
2015-Feb-18 09:33N 51°54' E 004°19'0 0.0
2015-Feb-18 08:33N 51°54' E 004°19'0 0.0
2015-Feb-18 07:34N 51°54' E 004°19'0 0.0
2015-Feb-18 06:34N 51°54' E 004°19'0 0.0
2015-Feb-18 05:34N 51°54' E 004°19'0 0.0
2015-Feb-18 04:34N 51°54' E 004°19'0 0.0
2015-Feb-18 03:34N 51°54' E 004°19'0 0.0
2015-Feb-18 02:33N 51°54' E 004°19'0 0.0
2015-Feb-18 01:33N 51°54' E 004°19'0 0.0
2015-Feb-18 00:33N 51°54' E 004°19'0 0.0
2015-Feb-17 23:33N 51°54' E 004°19'0 0.1
2015-Feb-17 22:34N 51°54' E 004°19'0 0.0
2015-Feb-17 21:30N 51°54' E 004°19'0 0.0
2015-Feb-17 20:32N 51°54' E 004°19'0 0.2
2015-Feb-17 19:33N 51°54' E 004°19'12 6.1
2015-Feb-17 17:33N 51°52' E 004°39'8 8.1
2015-Feb-17 16:31N 51°49' E 004°52'9 9.7
2015-Feb-17 15:33N 51°49' E 005°07'10 9.6
2015-Feb-17 14:33N 51°49' E 005°23'11 0.2
2015-Feb-15 19:17N 51°54' E 005°38'4 5.9
2015-Feb-15 18:33N 51°53' E 005°31'5 5.4
2015-Feb-15 17:33N 51°50' E 005°24'5 4.5
2015-Feb-15 16:33N 51°49' E 005°17'6 5.8
2015-Feb-15 15:33N 51°49' E 005°07'6 6.2
2015-Feb-15 14:33N 51°50' E 004°57'8 7.3
2015-Feb-15 13:30N 51°49' E 004°45'8 7.6
2015-Feb-15 12:31N 51°54' E 004°35'4 4.4
2015-Feb-15 11:31N 51°54' E 004°28'0 0.0
2015-Feb-15 10:33N 51°54' E 004°28'6 6.3
2015-Feb-15 09:33N 51°54' E 004°18'8 8.4
2015-Feb-15 08:33N 51°59' E 004°07'7 6.8
2015-Feb-15 07:33N 51°60' E 003°56'8 7.1
2015-Feb-15 06:29N 51°58' E 003°44'8 6.5
2015-Feb-15 05:13N 51°56' E 003°31'5 6.5
2015-Feb-15 04:29N 51°55' E 003°24'45 6.4
2015-Feb-14 21:28N 51°32' E 002°21'8 8.2
2015-Feb-14 20:26N 51°26' E 002°12'9 8.2
2015-Feb-14 19:17N 51°17' E 002°06'6 7.9
2015-Feb-14 18:32N 51°13' E 002°00'8 8.3
2015-Feb-14 17:33N 51°08' E 001°50'7 6.9
2015-Feb-14 16:33N 51°03' E 001°42'7 6.6
2015-Feb-14 15:32N 50°58' E 001°35'  

Dump ship's entire track history